sensor_id;sensor_type;location;lat;lon;timestamp;temperature;humidity
25688;DHT22;17407;51.120;3.702;2022-09-27T01:42:35;12.50;99.90
25688;DHT22;17407;51.120;3.702;2022-09-27T02:15:57;12.50;99.90
25688;DHT22;17407;51.120;3.702;2022-09-27T05:03:25;11.20;99.90
25688;DHT22;17407;51.120;3.702;2022-09-27T05:05:53;11.30;99.90
25688;DHT22;17407;51.120;3.702;2022-09-27T05:08:21;11.20;99.90
25688;DHT22;17407;51.120;3.702;2022-09-27T05:10:49;11.20;99.90
25688;DHT22;17407;51.120;3.702;2022-09-27T05:13:17;11.20;99.90
25688;DHT22;17407;51.120;3.702;2022-09-27T05:15:45;11.30;99.90
25688;DHT22;17407;51.120;3.702;2022-09-27T05:18:13;11.20;99.90
25688;DHT22;17407;51.120;3.702;2022-09-27T05:20:45;11.10;99.90
25688;DHT22;17407;51.120;3.702;2022-09-27T05:23:13;11.10;99.90
25688;DHT22;17407;51.120;3.702;2022-09-27T05:26:05;11.00;99.90
25688;DHT22;17407;51.120;3.702;2022-09-27T05:28:51;11.00;99.90
25688;DHT22;17407;51.120;3.702;2022-09-27T05:31:57;11.00;99.90
25688;DHT22;17407;51.120;3.702;2022-09-27T05:34:42;11.00;99.90
25688;DHT22;17407;51.120;3.702;2022-09-27T05:37:39;11.00;99.90
25688;DHT22;17407;51.120;3.702;2022-09-27T05:40:40;11.00;99.90
25688;DHT22;17407;51.120;3.702;2022-09-27T12:14:46;15.40;99.90
25688;DHT22;17407;51.120;3.702;2022-09-27T12:17:29;15.50;99.90
25688;DHT22;17407;51.120;3.702;2022-09-27T12:19:57;15.60;99.90
25688;DHT22;17407;51.120;3.702;2022-09-27T12:22:34;15.60;99.90
25688;DHT22;17407;51.120;3.702;2022-09-27T12:25:03;15.50;99.90
25688;DHT22;17407;51.120;3.702;2022-09-27T12:27:51;15.40;99.90
25688;DHT22;17407;51.120;3.702;2022-09-27T12:30:18;15.30;99.90
25688;DHT22;17407;51.120;3.702;2022-09-27T12:33:05;15.30;99.90
25688;DHT22;17407;51.120;3.702;2022-09-27T12:35:48;15.30;99.90
25688;DHT22;17407;51.120;3.702;2022-09-27T12:41:21;15.00;99.90
25688;DHT22;17407;51.120;3.702;2022-09-27T12:44:10;14.90;99.90
25688;DHT22;17407;51.120;3.702;2022-09-27T12:47:34;14.70;99.90
25688;DHT22;17407;51.120;3.702;2022-09-27T12:50:27;14.80;99.90
25688;DHT22;17407;51.120;3.702;2022-09-27T12:53:22;14.70;99.90
25688;DHT22;17407;51.120;3.702;2022-09-27T15:03:30;16.20;99.90
25688;DHT22;17407;51.120;3.702;2022-09-27T15:06:00;16.40;99.90
25688;DHT22;17407;51.120;3.702;2022-09-27T15:08:29;16.50;99.90
25688;DHT22;17407;51.120;3.702;2022-09-27T15:10:59;16.50;99.90
25688;DHT22;17407;51.120;3.702;2022-09-27T15:13:25;16.30;99.90
25688;DHT22;17407;51.120;3.702;2022-09-27T15:16:16;16.40;99.90
25688;DHT22;17407;51.120;3.702;2022-09-27T15:19:26;16.40;99.90
25688;DHT22;17407;51.120;3.702;2022-09-27T15:25:34;16.10;99.90
25688;DHT22;17407;51.120;3.702;2022-09-27T15:28:20;16.20;99.90
25688;DHT22;17407;51.120;3.702;2022-09-27T15:30:57;16.30;99.90
25688;DHT22;17407;51.120;3.702;2022-09-27T15:35:53;16.20;99.90
25688;DHT22;17407;51.120;3.702;2022-09-27T15:40:55;16.20;99.90
25688;DHT22;17407;51.120;3.702;2022-09-27T15:46:41;16.10;99.90
25688;DHT22;17407;51.120;3.702;2022-09-27T18:03:21;12.70;99.90
25688;DHT22;17407;51.120;3.702;2022-09-27T18:06:05;12.60;99.90
25688;DHT22;17407;51.120;3.702;2022-09-27T18:09:02;12.50;99.90
